Time;durP1;ratioP1;P1;durP2;ratioP2;P2;SDS_P1;SDS_P2;PMS_P1;PMS_P2;Temp;Humidity;BMP_temperature;BMP_pressure;BME280_temperature;BME280_humidity;BME280_pressure;Samples;Min_cycle;Max_cycle;Signal;HPM_P1;HPM_P2
2021/10/13 00:02:11;;;;;;;2.63;0.90;;;10.20;78.50;;;;;;5022762;28;20042;-75
2021/10/13 00:04:36;;;;;;;1.63;1.02;;;10.20;78.70;;;;;;5042828;28;20049;-75
2021/10/13 00:07:03;;;;;;;2.20;1.10;;;10.20;78.70;;;;;;5043870;28;20030;-76
2021/10/13 00:09:28;;;;;;;2.10;1.00;;;10.20;78.70;;;;;;5020210;28;20033;-76
2021/10/13 00:11:54;;;;;;;1.85;1.00;;;10.20;78.70;;;;;;5052636;28;20042;-76
2021/10/13 00:14:20;;;;;;;1.13;1.00;;;10.20;78.70;;;;;;5076945;28;20526;-77
2021/10/13 00:16:54;;;;;;;2.55;1.00;;;10.20;78.80;;;;;;5011666;28;20082;-76
2021/10/13 00:19:21;;;;;;;1.75;1.20;;;10.20;78.80;;;;;;5008322;28;20027;-76
2021/10/13 00:21:47;;;;;;;1.63;1.00;;;10.20;78.90;;;;;;5009054;28;20034;-76
2021/10/13 00:24:13;;;;;;;2.63;1.17;;;10.10;79.00;;;;;;5009001;28;20447;-76
2021/10/13 00:26:38;;;;;;;1.77;1.00;;;10.10;79.10;;;;;;5008355;28;20029;-76
2021/10/13 00:29:04;;;;;;;2.13;1.10;;;10.10;79.20;;;;;;5026880;28;20030;-76
2021/10/13 00:31:29;;;;;;;2.03;1.10;;;10.10;79.30;;;;;;5007204;28;20030;-76
2021/10/13 00:33:55;;;;;;;1.63;1.00;;;10.00;79.30;;;;;;5010235;28;20037;-78
2021/10/13 00:36:21;;;;;;;1.85;1.00;;;10.00;79.50;;;;;;5011051;28;20040;-77
2021/10/13 00:38:46;;;;;;;1.92;1.00;;;10.00;79.60;;;;;;5011625;28;20049;-76
2021/10/13 00:41:13;;;;;;;3.45;1.25;;;10.00;79.70;;;;;;5018055;28;20440;-78
2021/10/13 00:43:41;;;;;;;2.10;1.00;;;10.00;79.80;;;;;;5014036;28;20034;-76
2021/10/13 00:46:07;;;;;;;1.17;1.00;;;10.00;79.80;;;;;;5011622;28;20045;-76
2021/10/13 00:48:32;;;;;;;2.42;0.98;;;10.00;79.80;;;;;;5010050;28;20436;-77
2021/10/13 00:50:58;;;;;;;1.95;0.98;;;10.00;79.90;;;;;;5006931;28;20022;-75
2021/10/13 00:53:23;;;;;;;1.85;0.90;;;9.90;79.90;;;;;;5011995;28;20479;-76
2021/10/13 00:55:49;;;;;;;1.35;0.70;;;10.00;80.00;;;;;;5039201;28;20026;-76
2021/10/13 00:58:14;;;;;;;1.83;1.20;;;10.00;80.10;;;;;;5036947;28;20425;-76
2021/10/13 01:00:46;;;;;;;3.97;1.20;;;9.90;80.10;;;;;;5015957;28;20022;-77
2021/10/13 01:03:22;;;;;;;2.97;1.00;;;9.90;80.20;;;;;;5009699;28;20052;-77
2021/10/13 01:06:08;;;;;;;2.00;1.10;;;10.00;80.20;;;;;;5062702;28;20030;-76
2021/10/13 01:09:00;;;;;;;1.92;0.90;;;10.00;80.20;;;;;;4996771;28;20072;-74
2021/10/13 01:11:37;;;;;;;2.10;1.10;;;10.00;80.20;;;;;;5035255;28;20039;-75
2021/10/13 01:14:27;;;;;;;2.38;1.20;;;10.00;80.20;;;;;;5022316;28;20025;-75
2021/10/13 01:17:10;;;;;;;2.97;1.00;;;9.90;80.10;;;;;;5041014;28;20430;-75
2021/10/13 01:19:48;;;;;;;2.17;1.10;;;9.90;80.10;;;;;;5063968;28;20498;-75
2021/10/13 01:23:12;;;;;;;2.72;0.90;;;9.90;80.20;;;;;;5042905;28;20034;-75
2021/10/13 01:25:48;;;;;;;1.52;0.93;;;9.90;80.20;;;;;;4999027;28;20037;-76
2021/10/13 01:28:18;;;;;;;2.00;0.90;;;9.90;80.30;;;;;;5009533;28;20038;-75
2021/10/13 01:30:53;;;;;;;2.65;1.10;;;9.90;80.30;;;;;;5008971;28;20060;-75
2021/10/13 01:33:25;;;;;;;2.88;1.00;;;9.90;80.30;;;;;;5010482;28;20030;-75
2021/10/13 01:35:54;;;;;;;1.48;1.00;;;9.90;80.40;;;;;;5009256;28;20479;-76
2021/10/13 01:38:22;;;;;;;2.28;1.20;;;9.90;80.40;;;;;;5009670;28;20034;-75
2021/10/13 01:40:52;;;;;;;2.83;1.10;;;9.90;80.50;;;;;;5001241;28;20022;-75
2021/10/13 01:43:20;;;;;;;1.75;1.00;;;9.90;80.50;;;;;;5007614;28;20042;-75
2021/10/13 01:45:49;;;;;;;2.05;1.05;;;9.90;80.60;;;;;;5009400;28;20029;-75
2021/10/13 01:48:16;;;;;;;2.95;1.10;;;9.80;80.60;;;;;;5009645;28;20683;-75
2021/10/13 01:50:44;;;;;;;4.05;1.00;;;9.80;80.60;;;;;;5007689;28;20022;-74
2021/10/13 01:53:10;;;;;;;2.90;1.00;;;9.80;80.70;;;;;;5005018;28;20030;-75
2021/10/13 01:55:37;;;;;;;1.90;1.10;;;9.80;80.70;;;;;;5007566;28;20033;-75
2021/10/13 01:58:04;;;;;;;1.60;1.10;;;9.80;80.70;;;;;;5008792;28;20040;-74
2021/10/13 02:00:30;;;;;;;2.17;1.02;;;9.80;80.70;;;;;;5008452;28;20064;-75
2021/10/13 02:02:57;;;;;;;1.50;0.95;;;9.70;80.70;;;;;;5008105;28;20098;-74
2021/10/13 02:05:24;;;;;;;1.45;1.02;;;9.70;80.70;;;;;;5005326;28;20034;-75
2021/10/13 02:07:50;;;;;;;2.15;1.20;;;9.70;80.80;;;;;;5003581;28;20109;-75
2021/10/13 02:10:19;;;;;;;1.48;1.00;;;9.70;80.80;;;;;;5018934;28;20110;-75
2021/10/13 02:12:47;;;;;;;1.60;1.10;;;9.70;80.80;;;;;;5077078;28;20031;-75
2021/10/13 02:15:14;;;;;;;1.25;0.82;;;9.70;80.90;;;;;;5060724;27;20034;-74
2021/10/13 02:17:43;;;;;;;1.92;1.00;;;9.70;80.80;;;;;;5063755;28;20037;-74
2021/10/13 02:20:09;;;;;;;2.22;1.20;;;9.70;81.00;;;;;;5033335;28;20067;-75
2021/10/13 02:22:39;;;;;;;3.25;1.05;;;9.70;81.00;;;;;;5004614;28;20046;-74
2021/10/13 02:25:05;;;;;;;2.63;1.02;;;9.60;80.90;;;;;;5060458;28;20015;-74
2021/10/13 02:27:38;;;;;;;0.98;0.90;;;9.60;80.90;;;;;;5041036;28;20020;-75
2021/10/13 02:30:04;;;;;;;;;;;9.60;80.90;;;;;;5017795;28;20052;-73
2021/10/13 02:32:29;;;;;;;1.60;0.98;;;9.60;80.80;;;;;;5031407;28;20371;-73
2021/10/13 02:34:57;;;;;;;1.77;0.98;;;9.60;81.00;;;;;;5008431;28;20072;-74
2021/10/13 02:37:23;;;;;;;1.58;1.00;;;9.70;81.00;;;;;;5021681;28;20021;-73
2021/10/13 02:39:48;;;;;;;2.85;1.00;;;9.70;80.80;;;;;;5051535;28;20038;-73
2021/10/13 02:42:14;;;;;;;1.70;0.90;;;9.70;80.90;;;;;;5079897;28;20034;-72
2021/10/13 02:44:40;;;;;;;1.23;0.90;;;9.70;80.80;;;;;;5057673;28;20481;-76
2021/10/13 02:47:27;;;;;;;1.00;0.90;;;9.80;80.80;;;;;;5060312;28;20113;-74
2021/10/13 02:50:02;;;;;;;2.45;0.85;;;9.80;81.40;;;;;;5059740;28;20095;-74
2021/10/13 02:52:46;;;;;;;1.13;0.88;;;9.90;80.80;;;;;;5046816;28;20190;-74
2021/10/13 02:55:19;;;;;;;1.98;0.90;;;9.90;80.80;;;;;;5057498;28;20123;-73
2021/10/13 02:58:10;;;;;;;1.90;0.98;;;9.90;80.70;;;;;;5060543;28;20511;-74
2021/10/13 03:00:37;;;;;;;1.58;0.95;;;10.00;80.80;;;;;;5073241;28;20027;-74
2021/10/13 03:03:09;;;;;;;2.13;0.90;;;10.00;80.70;;;;;;5057183;28;20069;-74
2021/10/13 03:05:36;;;;;;;1.13;0.80;;;10.00;80.70;;;;;;5055003;27;20022;-73
2021/10/13 03:08:05;;;;;;;2.05;0.90;;;10.10;80.60;;;;;;5072180;28;20036;-74
2021/10/13 03:10:33;;;;;;;1.10;1.00;;;10.10;80.60;;;;;;5046526;28;20075;-75
2021/10/13 03:12:59;;;;;;;3.30;1.10;;;10.10;80.60;;;;;;5044890;28;20022;-75
2021/10/13 03:15:26;;;;;;;1.00;0.70;;;10.10;80.60;;;;;;5059203;28;20031;-75
2021/10/13 03:17:54;;;;;;;2.15;0.80;;;10.10;80.50;;;;;;5054471;28;20026;-74
2021/10/13 03:20:21;;;;;;;2.10;1.00;;;10.20;80.50;;;;;;5003570;28;20038;-74
2021/10/13 03:22:48;;;;;;;1.75;0.98;;;10.20;80.50;;;;;;5017100;28;20038;-74
2021/10/13 03:25:23;;;;;;;2.10;1.00;;;10.20;80.50;;;;;;5090028;28;20115;-74
2021/10/13 03:27:48;;;;;;;2.70;1.10;;;10.20;80.50;;;;;;5013992;28;20443;-74
2021/10/13 03:30:14;;;;;;;2.40;1.25;;;10.20;80.60;;;;;;5061853;28;20059;-74
2021/10/13 03:32:44;;;;;;;2.60;1.00;;;10.20;80.60;;;;;;5021400;28;20033;-75
2021/10/13 03:35:10;;;;;;;2.42;1.02;;;10.20;80.60;;;;;;5042357;28;20020;-75
2021/10/13 03:37:35;;;;;;;1.27;0.80;;;10.20;80.60;;;;;;5058617;28;20035;-75
2021/10/13 03:40:01;;;;;;;2.92;1.00;;;10.20;80.50;;;;;;5021157;28;20484;-74
2021/10/13 03:42:26;;;;;;;1.73;1.00;;;10.20;80.50;;;;;;4996988;28;20042;-75
2021/10/13 03:44:52;;;;;;;1.58;0.90;;;10.30;80.60;;;;;;5054397;28;20041;-75
2021/10/13 03:47:17;;;;;;;1.95;1.10;;;10.30;80.70;;;;;;5022759;28;20426;-75
2021/10/13 03:49:43;;;;;;;2.38;1.00;;;10.30;80.60;;;;;;5010711;28;20422;-75
2021/10/13 03:52:08;;;;;;;1.83;0.95;;;10.20;80.60;;;;;;5063663;28;20030;-75
2021/10/13 03:54:34;;;;;;;2.90;1.08;;;10.30;80.70;;;;;;5001476;28;20026;-75
2021/10/13 03:56:59;;;;;;;1.35;0.90;;;10.30;80.80;;;;;;5070036;28;20026;-75
2021/10/13 03:59:25;;;;;;;0.95;0.80;;;10.30;80.80;;;;;;5004606;28;20460;-74
2021/10/13 04:01:50;;;;;;;1.50;1.00;;;10.40;80.90;;;;;;5062814;28;20113;-75
2021/10/13 04:04:16;;;;;;;2.60;1.23;;;10.30;80.90;;;;;;5052895;28;20121;-75
2021/10/13 04:06:41;;;;;;;0.80;0.80;;;10.40;80.90;;;;;;5055449;28;20030;-75
2021/10/13 04:09:07;;;;;;;1.75;1.00;;;10.40;80.80;;;;;;5022506;28;20024;-75
2021/10/13 04:11:33;;;;;;;2.15;0.88;;;10.50;80.80;;;;;;5087553;28;20027;-75
2021/10/13 04:13:58;;;;;;;0.88;0.80;;;10.40;80.80;;;;;;5065781;28;20038;-75
2021/10/13 04:16:25;;;;;;;1.85;0.90;;;10.50;80.90;;;;;;5037774;28;20026;-75
2021/10/13 04:18:51;;;;;;;2.55;1.00;;;10.50;80.90;;;;;;5029844;28;20030;-75
2021/10/13 04:21:16;;;;;;;2.88;0.90;;;10.50;80.80;;;;;;5083620;28;20503;-75
2021/10/13 04:23:42;;;;;;;1.23;0.80;;;10.50;80.80;;;;;;5072952;28;20046;-75
2021/10/13 04:26:07;;;;;;;0.85;0.70;;;10.60;80.90;;;;;;5058550;28;20026;-75
2021/10/13 04:28:33;;;;;;;1.85;0.90;;;10.60;80.80;;;;;;5007076;28;20086;-75
2021/10/13 04:31:00;;;;;;;1.70;0.80;;;10.60;80.70;;;;;;5034398;28;20031;-75
2021/10/13 04:33:25;;;;;;;1.45;0.70;;;10.60;80.60;;;;;;5024449;28;20033;-74
2021/10/13 04:35:51;;;;;;;0.85;0.70;;;10.70;80.60;;;;;;5047477;28;20025;-74
2021/10/13 04:38:16;;;;;;;2.65;1.10;;;10.70;80.60;;;;;;5007167;28;20472;-74
2021/10/13 04:40:42;;;;;;;1.08;0.60;;;10.70;80.50;;;;;;5042834;28;20030;-74
2021/10/13 04:43:07;;;;;;;1.65;0.88;;;10.70;80.60;;;;;;5040190;28;20038;-74
2021/10/13 04:45:33;;;;;;;2.45;0.90;;;10.60;80.60;;;;;;5014688;28;20022;-75
2021/10/13 04:47:58;;;;;;;2.97;0.90;;;10.70;80.70;;;;;;5033540;28;20038;-75
2021/10/13 04:50:24;;;;;;;1.65;0.85;;;10.60;80.80;;;;;;5058726;28;20011;-75
2021/10/13 04:52:49;;;;;;;1.30;0.70;;;10.70;80.80;;;;;;5043677;28;20481;-75
2021/10/13 04:55:15;;;;;;;1.00;0.60;;;10.70;80.80;;;;;;5036244;28;20490;-75
2021/10/13 04:57:40;;;;;;;0.75;0.60;;;10.70;80.80;;;;;;5056589;28;20385;-75
2021/10/13 05:00:06;;;;;;;2.15;0.80;;;10.70;80.80;;;;;;5049777;28;20570;-73
2021/10/13 05:02:32;;;;;;;1.45;0.75;;;10.70;80.90;;;;;;5063475;28;20045;-73
2021/10/13 05:04:57;;;;;;;2.13;1.00;;;10.60;80.80;;;;;;5052191;28;20102;-73
2021/10/13 05:07:23;;;;;;;2.47;1.10;;;10.70;80.80;;;;;;5032072;28;20041;-74
2021/10/13 05:09:48;;;;;;;2.67;1.00;;;10.60;80.70;;;;;;5055057;28;20468;-74
2021/10/13 05:12:14;;;;;;;1.17;1.00;;;10.70;80.70;;;;;;5042638;28;20026;-76
2021/10/13 05:14:40;;;;;;;0.88;0.70;;;10.60;80.70;;;;;;5049485;28;20023;-76
2021/10/13 05:17:05;;;;;;;1.92;0.80;;;10.60;80.70;;;;;;5007015;28;20034;-75
2021/10/13 05:19:31;;;;;;;1.40;0.80;;;10.60;80.90;;;;;;5081641;28;20023;-77
2021/10/13 05:21:56;;;;;;;1.77;0.90;;;10.50;80.90;;;;;;5048532;28;20416;-76
2021/10/13 05:24:22;;;;;;;1.25;0.90;;;10.50;81.00;;;;;;5012454;28;20122;-76
2021/10/13 05:26:47;;;;;;;2.80;1.00;;;10.50;81.00;;;;;;5048500;28;20086;-76
2021/10/13 05:29:13;;;;;;;2.60;1.00;;;10.50;81.00;;;;;;5055367;28;20031;-75
2021/10/13 05:31:39;;;;;;;2.15;1.17;;;10.50;81.00;;;;;;5048578;28;20026;-76
2021/10/13 05:34:05;;;;;;;3.28;1.17;;;10.40;81.10;;;;;;5059600;28;20365;-76
2021/10/13 05:36:30;;;;;;;1.55;0.90;;;10.40;81.00;;;;;;5025277;28;20075;-76
2021/10/13 05:38:56;;;;;;;2.17;1.10;;;10.40;81.00;;;;;;5044560;28;20042;-77
2021/10/13 05:41:22;;;;;;;2.28;1.10;;;10.40;81.20;;;;;;5042798;28;20036;-76
2021/10/13 05:43:48;;;;;;;2.05;1.00;;;10.30;81.10;;;;;;5060496;28;20417;-77
2021/10/13 05:46:13;;;;;;;1.60;1.00;;;10.30;81.30;;;;;;5067393;28;20110;-77
2021/10/13 05:48:39;;;;;;;1.77;1.10;;;10.20;81.30;;;;;;5053652;28;20040;-77
2021/10/13 05:51:05;;;;;;;1.88;0.90;;;10.20;81.40;;;;;;5026688;28;20021;-77
2021/10/13 05:53:30;;;;;;;1.73;1.02;;;10.20;81.50;;;;;;5054150;28;20123;-77
2021/10/13 05:55:56;;;;;;;3.10;1.10;;;10.10;81.50;;;;;;5072256;28;20030;-77
2021/10/13 05:58:23;;;;;;;2.00;0.90;;;10.10;81.60;;;;;;5067486;28;20480;-76
2021/10/13 06:00:50;;;;;;;2.70;0.98;;;10.10;81.60;;;;;;5057494;28;20616;-76
2021/10/13 06:03:15;;;;;;;1.83;1.10;;;10.00;81.60;;;;;;5054084;28;20129;-76
2021/10/13 06:05:41;;;;;;;1.27;0.80;;;10.00;81.70;;;;;;5042769;28;20059;-76
2021/10/13 06:08:07;;;;;;;0.70;0.70;;;10.00;81.80;;;;;;5063480;28;20039;-76
2021/10/13 06:10:32;;;;;;;1.85;1.00;;;10.00;81.70;;;;;;5010358;28;20022;-76
2021/10/13 06:12:58;;;;;;;1.95;1.00;;;10.00;81.70;;;;;;5009630;28;20038;-76
2021/10/13 06:15:24;;;;;;;2.42;1.00;;;10.00;81.70;;;;;;5009848;28;20124;-77
2021/10/13 06:17:50;;;;;;;2.08;1.00;;;10.10;81.80;;;;;;5007102;28;20041;-76
2021/10/13 06:20:15;;;;;;;3.28;1.40;;;10.10;81.70;;;;;;5008165;28;20026;-77
2021/10/13 06:22:41;;;;;;;1.58;0.98;;;10.20;81.60;;;;;;5009362;28;20033;-77
2021/10/13 06:25:07;;;;;;;2.42;1.20;;;10.20;81.50;;;;;;5009788;28;20022;-77
2021/10/13 06:27:33;;;;;;;2.60;1.42;;;10.30;81.50;;;;;;5008799;28;20504;-77
2021/10/13 06:29:59;;;;;;;1.52;0.88;;;10.30;81.40;;;;;;5009276;28;20034;-76
2021/10/13 06:32:25;;;;;;;2.33;1.05;;;10.40;81.30;;;;;;4998054;28;20384;-76
2021/10/13 06:34:50;;;;;;;2.22;1.00;;;10.40;81.30;;;;;;5005209;28;20525;-77
2021/10/13 06:37:15;;;;;;;3.22;1.10;;;10.40;81.20;;;;;;5005088;28;20022;-76
2021/10/13 06:39:41;;;;;;;1.85;1.00;;;10.50;81.20;;;;;;5008491;28;20026;-78
2021/10/13 06:42:07;;;;;;;2.30;1.15;;;10.50;81.20;;;;;;5008818;28;20058;-77
2021/10/13 06:44:32;;;;;;;1.33;0.73;;;10.50;81.20;;;;;;5008773;28;20034;-77
2021/10/13 06:46:58;;;;;;;3.25;1.10;;;10.60;81.20;;;;;;5008512;28;20061;-77
2021/10/13 06:49:23;;;;;;;1.75;1.00;;;10.60;81.20;;;;;;5009989;28;20030;-77
2021/10/13 06:51:49;;;;;;;2.65;1.00;;;10.70;81.20;;;;;;5025228;28;20029;-76
2021/10/13 06:54:15;;;;;;;2.17;0.90;;;10.70;81.10;;;;;;5011932;28;20030;-77
2021/10/13 06:56:41;;;;;;;2.05;0.90;;;10.80;81.10;;;;;;5008617;28;20018;-76
2021/10/13 06:59:07;;;;;;;3.63;0.90;;;10.90;80.90;;;;;;5010006;28;20041;-76
2021/10/13 07:01:33;;;;;;;1.88;1.00;;;11.00;80.90;;;;;;5007866;28;20105;-76
2021/10/13 07:03:59;;;;;;;1.75;0.85;;;11.00;80.80;;;;;;5006698;28;20026;-76
2021/10/13 07:06:25;;;;;;;3.00;1.10;;;11.10;80.60;;;;;;5016784;28;20032;-75
2021/10/13 07:08:51;;;;;;;2.70;0.80;;;11.10;80.60;;;;;;5008099;28;20087;-76
2021/10/13 07:11:19;;;;;;;1.63;0.82;;;11.10;80.50;;;;;;5006892;28;20141;-79
2021/10/13 07:13:45;;;;;;;1.85;0.98;;;11.20;80.50;;;;;;5012988;28;20018;-77
2021/10/13 07:16:11;;;;;;;3.05;0.90;;;11.20;80.50;;;;;;5008267;28;20456;-79
2021/10/13 07:18:36;;;;;;;2.25;0.98;;;11.30;80.40;;;;;;5017007;28;20014;-78
2021/10/13 07:21:03;;;;;;;2.38;1.10;;;11.40;80.30;;;;;;5051432;28;20111;-78
2021/10/13 07:23:28;;;;;;;1.35;1.08;;;11.40;80.20;;;;;;5048407;28;20468;-77
2021/10/13 07:25:54;;;;;;;1.85;0.85;;;11.50;80.20;;;;;;5068966;28;20029;-78
2021/10/13 07:28:20;;;;;;;2.03;1.08;;;11.50;80.10;;;;;;5012645;28;20030;-76
2021/10/13 07:30:46;;;;;;;2.42;0.90;;;11.50;79.90;;;;;;5024376;28;20030;-78
2021/10/13 07:33:17;;;;;;;2.13;0.80;;;11.60;79.90;;;;;;5003758;28;20025;-78
2021/10/13 07:35:42;;;;;;;1.58;0.90;;;11.70;79.80;;;;;;5007324;28;20061;-75
2021/10/13 07:38:12;;;;;;;1.65;0.90;;;11.70;79.60;;;;;;5006736;28;20667;-76
2021/10/13 07:40:39;;;;;;;3.10;1.00;;;11.80;79.50;;;;;;5005870;28;20523;-75
